Time;durP1;ratioP1;P1;durP2;ratioP2;P2;SDS_P1;SDS_P2;PMS_P1;PMS_P2;Temp;Humidity;BMP_temperature;BMP_pressure;BME280_temperature;BME280_humidity;BME280_pressure;Samples;Min_cycle;Max_cycle;Signal;HPM_P1;HPM_P2
2024/01/18 00:00:48;;;;;;;11.97;9.77;;;0.00;99.90;;;;;;5050104;28;20572;-71
2024/01/18 00:03:17;;;;;;;12.37;9.37;;;0.00;99.90;;;;;;5050148;28;20594;-71
2024/01/18 00:05:44;;;;;;;14.07;10.10;;;0.00;99.90;;;;;;5050717;28;20200;-70
2024/01/18 00:08:10;;;;;;;13.20;10.17;;;0.00;99.90;;;;;;5049833;28;20326;-70
2024/01/18 00:10:37;;;;;;;10.43;9.23;;;0.00;99.90;;;;;;5050235;28;20755;-71
2024/01/18 00:13:04;;;;;;;11.33;9.30;;;0.00;99.90;;;;;;5049802;28;20299;-71
2024/01/18 00:15:32;;;;;;;12.70;9.63;;;0.00;99.90;;;;;;5050383;28;20247;-71
2024/01/18 00:17:59;;;;;;;13.70;9.20;;;0.10;99.90;;;;;;5050022;28;20210;-71
2024/01/18 00:20:27;;;;;;;12.07;9.83;;;-0.10;99.90;;;;;;5050237;28;20697;-71
2024/01/18 00:22:54;;;;;;;10.60;9.17;;;0.00;99.90;;;;;;5050017;28;20208;-71
2024/01/18 00:25:21;;;;;;;10.77;9.43;;;0.00;99.90;;;;;;5049902;28;20309;-71
2024/01/18 00:27:48;;;;;;;11.87;8.77;;;-0.10;99.90;;;;;;5050070;28;20231;-71
2024/01/18 00:30:17;;;;;;;11.07;8.47;;;-0.10;99.90;;;;;;5049699;28;20208;-71
2024/01/18 00:32:44;;;;;;;12.33;9.13;;;-0.10;99.90;;;;;;5049835;28;20212;-71
2024/01/18 00:35:11;;;;;;;13.20;9.30;;;-0.10;99.90;;;;;;5050014;28;20205;-71
2024/01/18 00:37:39;;;;;;;9.57;8.33;;;-0.10;99.90;;;;;;5049251;28;20715;-71
2024/01/18 00:40:07;;;;;;;9.77;8.67;;;-0.10;99.90;;;;;;5036967;28;20415;-71
2024/01/18 00:42:34;;;;;;;10.60;8.83;;;-0.10;99.90;;;;;;5049638;28;20200;-70
2024/01/18 00:45:02;;;;;;;12.37;9.50;;;-0.10;99.90;;;;;;5049552;28;20239;-71
2024/01/18 00:47:29;;;;;;;12.20;9.13;;;0.00;99.90;;;;;;5049411;28;20238;-71
2024/01/18 00:49:56;;;;;;;11.13;8.40;;;0.00;99.90;;;;;;5049732;28;20232;-73
2024/01/18 00:52:23;;;;;;;10.37;8.90;;;-0.10;99.90;;;;;;5049657;28;20227;-73
2024/01/18 00:54:51;;;;;;;10.40;8.57;;;0.00;99.90;;;;;;5049267;28;20228;-71
2024/01/18 00:57:18;;;;;;;11.37;8.20;;;0.00;99.90;;;;;;5049722;28;20296;-73
2024/01/18 00:59:45;;;;;;;10.90;8.03;;;0.00;99.90;;;;;;5049399;28;20739;-72
2024/01/18 01:02:12;;;;;;;11.93;8.53;;;-0.10;99.90;;;;;;5049198;28;20630;-72
2024/01/18 01:04:39;;;;;;;11.30;8.83;;;-0.10;99.90;;;;;;5049267;28;20235;-71
2024/01/18 01:07:06;;;;;;;9.03;7.90;;;-0.10;99.90;;;;;;5048772;28;20237;-71
2024/01/18 01:09:33;;;;;;;10.87;8.60;;;-0.10;99.90;;;;;;5048316;28;20647;-71
2024/01/18 01:12:01;;;;;;;13.40;9.27;;;-0.20;99.90;;;;;;5048536;28;20298;-72
2024/01/18 01:14:28;;;;;;;10.97;8.20;;;-0.30;99.90;;;;;;5049072;28;20266;-71
2024/01/18 01:16:55;;;;;;;9.67;8.10;;;-0.30;99.90;;;;;;5049013;28;20492;-71
2024/01/18 01:19:22;;;;;;;9.73;8.10;;;-0.40;99.90;;;;;;5048872;28;20215;-71
2024/01/18 01:21:50;;;;;;;8.87;7.97;;;-0.40;99.90;;;;;;5048617;28;20882;-70
2024/01/18 01:24:17;;;;;;;9.53;8.53;;;-0.40;99.90;;;;;;5048969;28;20204;-71
2024/01/18 01:26:45;;;;;;;14.13;9.23;;;-0.40;99.90;;;;;;5048781;28;20319;-71
2024/01/18 01:29:15;;;;;;;10.93;8.43;;;-0.40;99.90;;;;;;5048516;28;20249;-71
2024/01/18 01:31:43;;;;;;;11.17;9.00;;;-0.30;99.90;;;;;;5048739;28;20199;-71
2024/01/18 01:34:10;;;;;;;9.90;8.63;;;-0.30;99.90;;;;;;5044754;28;20613;-71
2024/01/18 01:36:37;;;;;;;13.17;8.67;;;-0.30;99.90;;;;;;5045275;28;20263;-72
2024/01/18 01:39:05;;;;;;;10.70;7.90;;;-0.20;99.90;;;;;;5034223;28;20216;-71
2024/01/18 01:41:33;;;;;;;9.73;8.10;;;-0.20;99.90;;;;;;5048637;28;20817;-71
2024/01/18 01:44:01;;;;;;;10.10;8.27;;;-0.20;99.90;;;;;;5048243;28;20208;-70
2024/01/18 01:46:30;;;;;;;11.40;8.83;;;-0.10;99.90;;;;;;5048589;28;20207;-71
2024/01/18 01:49:02;;;;;;;11.40;8.07;;;-0.10;99.90;;;;;;5048430;28;20208;-72
2024/01/18 01:51:31;;;;;;;11.20;8.50;;;-0.20;99.90;;;;;;5048312;28;20199;-71
2024/01/18 01:53:58;;;;;;;10.17;8.57;;;-0.30;99.90;;;;;;5048367;28;20251;-71
2024/01/18 01:56:26;;;;;;;9.07;7.90;;;-0.30;99.90;;;;;;5048385;28;20291;-71
2024/01/18 01:58:53;;;;;;;11.70;8.60;;;-0.30;99.90;;;;;;5048348;28;20326;-71
2024/01/18 02:01:20;;;;;;;10.67;8.57;;;-0.40;99.90;;;;;;5048532;28;20295;-72
2024/01/18 02:03:48;;;;;;;10.83;8.67;;;-0.40;99.90;;;;;;5048052;28;20749;-72
2024/01/18 02:06:17;;;;;;;11.70;8.80;;;-0.30;99.90;;;;;;5048042;28;20287;-72
2024/01/18 02:08:46;;;;;;;11.00;8.57;;;-0.30;99.90;;;;;;5048054;28;20335;-71
2024/01/18 02:11:14;;;;;;;13.63;9.13;;;-0.30;99.90;;;;;;5047694;28;20240;-71
2024/01/18 02:13:40;;;;;;;9.80;8.70;;;-0.30;99.90;;;;;;5047802;28;20689;-71
2024/01/18 02:16:07;;;;;;;10.27;8.70;;;-0.20;99.90;;;;;;5047586;28;20738;-71
2024/01/18 02:18:35;;;;;;;11.53;8.47;;;-0.20;99.90;;;;;;5047838;28;20591;-71
2024/01/18 02:21:04;;;;;;;11.00;8.57;;;-0.20;99.90;;;;;;5047479;28;20549;-71
2024/01/18 02:23:33;;;;;;;11.70;8.50;;;-0.20;99.90;;;;;;5047573;28;20201;-72
2024/01/18 02:26:01;;;;;;;13.10;8.90;;;-0.30;99.90;;;;;;5047658;28;20215;-72
2024/01/18 02:28:28;;;;;;;11.27;8.27;;;-0.30;99.90;;;;;;5047379;28;20330;-72
2024/01/18 02:30:55;;;;;;;10.40;8.73;;;-0.40;99.90;;;;;;5047311;28;20210;-71
2024/01/18 02:33:22;;;;;;;10.10;8.70;;;-0.40;99.90;;;;;;5047540;28;20290;-71
2024/01/18 02:35:50;;;;;;;15.17;9.10;;;-0.40;99.90;;;;;;5047529;28;20204;-71
2024/01/18 02:38:17;;;;;;;12.00;9.77;;;-0.40;99.90;;;;;;5047039;28;20286;-71
2024/01/18 02:40:44;;;;;;;11.27;8.87;;;-0.40;99.90;;;;;;5047597;28;20298;-71
2024/01/18 02:43:12;;;;;;;10.90;9.50;;;-0.40;99.90;;;;;;5047444;28;20312;-71
2024/01/18 02:45:39;;;;;;;10.80;9.30;;;-0.40;99.90;;;;;;5046916;28;20196;-71
2024/01/18 02:48:06;;;;;;;12.50;9.40;;;-0.50;99.90;;;;;;5047055;28;20411;-71
2024/01/18 02:50:33;;;;;;;12.27;9.80;;;-0.50;99.90;;;;;;5046975;28;20200;-71
2024/01/18 02:53:00;;;;;;;11.10;9.40;;;-0.50;99.90;;;;;;5046785;28;20239;-71
2024/01/18 02:55:27;;;;;;;11.07;9.50;;;-0.50;99.90;;;;;;5046903;28;20335;-71
2024/01/18 02:57:56;;;;;;;14.03;9.57;;;-0.50;99.90;;;;;;5047019;28;20218;-71
2024/01/18 03:00:24;;;;;;;10.90;9.03;;;-0.50;99.90;;;;;;5047091;28;20299;-71
2024/01/18 03:02:51;;;;;;;11.10;9.20;;;-0.50;99.90;;;;;;5047102;28;20215;-71
2024/01/18 03:05:18;;;;;;;12.73;9.73;;;-0.50;99.90;;;;;;5046925;28;20246;-72
2024/01/18 03:07:45;;;;;;;12.03;10.00;;;-0.50;99.90;;;;;;5047112;28;20260;-72
2024/01/18 03:10:12;;;;;;;11.13;9.63;;;-0.50;99.90;;;;;;5047011;28;20216;-72
2024/01/18 03:12:39;;;;;;;10.77;9.47;;;-0.50;99.90;;;;;;5047009;28;20303;-72
2024/01/18 03:15:09;;;;;;;13.47;9.70;;;-0.50;99.90;;;;;;5046780;28;20212;-72
2024/01/18 03:17:37;;;;;;;11.43;9.37;;;-0.50;99.90;;;;;;5046977;28;20632;-71
2024/01/18 03:20:07;;;;;;;14.10;9.87;;;-0.50;99.90;;;;;;5046547;28;20283;-70
2024/01/18 03:22:34;;;;;;;12.30;9.70;;;-0.50;99.90;;;;;;5046346;28;20296;-72
2024/01/18 03:25:01;;;;;;;14.70;9.60;;;-0.50;99.90;;;;;;5046144;28;20293;-71
2024/01/18 03:27:27;;;;;;;12.97;9.30;;;-0.50;99.90;;;;;;5046960;28;20285;-71
2024/01/18 03:29:55;;;;;;;12.33;9.27;;;-0.50;99.90;;;;;;5046244;28;20649;-71
2024/01/18 03:32:22;;;;;;;10.73;8.97;;;-0.50;99.90;;;;;;5039254;28;20231;-71
2024/01/18 03:34:51;;;;;;;10.60;9.27;;;-0.50;99.90;;;;;;5048297;28;20223;-71
2024/01/18 03:37:18;;;;;;;13.20;10.23;;;-0.50;99.90;;;;;;5040148;28;20204;-71
2024/01/18 03:39:45;;;;;;;14.20;9.87;;;-0.60;99.90;;;;;;5038316;28;20291;-71
2024/01/18 03:42:12;;;;;;;15.03;9.17;;;-0.60;99.90;;;;;;5047749;28;20674;-71
2024/01/18 03:44:38;;;;;;;14.20;10.63;;;-0.60;99.90;;;;;;5045424;28;20200;-71
2024/01/18 03:47:05;;;;;;;13.70;9.90;;;-0.50;99.90;;;;;;5044015;28;20208;-72
2024/01/18 03:49:32;;;;;;;13.43;9.37;;;-0.50;99.90;;;;;;5044355;28;20261;-71
2024/01/18 03:52:01;;;;;;;13.23;9.97;;;-0.50;99.90;;;;;;5044720;28;20236;-71
2024/01/18 03:54:28;;;;;;;13.23;9.20;;;-0.50;99.90;;;;;;5044599;28;20758;-71
2024/01/18 03:56:55;;;;;;;12.07;9.67;;;-0.50;99.90;;;;;;5044425;28;20231;-71
2024/01/18 03:59:23;;;;;;;14.07;9.80;;;-0.50;99.90;;;;;;5045453;28;20208;-71
2024/01/18 04:01:50;;;;;;;12.20;9.67;;;-0.50;99.90;;;;;;5045258;28;20235;-71
2024/01/18 04:04:17;;;;;;;12.83;9.13;;;-0.40;99.90;;;;;;5045873;28;20243;-71
2024/01/18 04:06:44;;;;;;;12.10;10.03;;;-0.40;99.90;;;;;;5046071;28;20291;-71
2024/01/18 04:09:12;;;;;;;13.23;9.47;;;-0.40;99.90;;;;;;5045443;28;20299;-71
2024/01/18 04:11:39;;;;;;;13.17;10.17;;;-0.40;99.90;;;;;;5046627;28;20289;-71
2024/01/18 04:14:06;;;;;;;13.60;9.70;;;-0.40;99.90;;;;;;5046132;28;20300;-71
2024/01/18 04:16:34;;;;;;;13.43;9.70;;;-0.40;99.90;;;;;;5046427;28;20645;-71
2024/01/18 04:19:01;;;;;;;10.27;8.97;;;-0.40;99.90;;;;;;5046134;28;20208;-72
2024/01/18 04:21:28;;;;;;;14.93;9.97;;;-0.40;99.90;;;;;;5045759;28;20765;-71
2024/01/18 04:23:56;;;;;;;12.23;9.70;;;-0.40;99.90;;;;;;5046171;28;20208;-71
2024/01/18 04:26:24;;;;;;;12.10;9.90;;;-0.40;99.90;;;;;;5046412;28;20545;-71
2024/01/18 04:28:51;;;;;;;14.30;9.20;;;-0.40;99.90;;;;;;5045854;28;20236;-71
2024/01/18 04:31:18;;;;;;;12.03;9.43;;;-0.40;99.90;;;;;;5046257;28;20219;-71
2024/01/18 04:33:45;;;;;;;13.00;9.57;;;-0.50;99.90;;;;;;5046661;28;20299;-71
2024/01/18 04:36:12;;;;;;;11.10;9.13;;;-0.60;99.90;;;;;;5046005;28;20580;-71
2024/01/18 04:38:39;;;;;;;11.97;10.37;;;-0.60;99.90;;;;;;5045870;28;20210;-71
2024/01/18 04:41:06;;;;;;;12.27;9.10;;;-0.70;99.90;;;;;;5046472;28;20215;-71
2024/01/18 04:43:34;;;;;;;14.57;10.33;;;-0.80;99.90;;;;;;5046474;28;20263;-71
2024/01/18 04:46:04;;;;;;;13.53;9.53;;;-0.80;99.90;;;;;;5049479;28;20226;-71
2024/01/18 04:48:31;;;;;;;13.50;10.37;;;-0.80;99.90;;;;;;5049819;28;20293;-71
2024/01/18 04:50:58;;;;;;;12.63;10.07;;;-0.70;99.90;;;;;;5049899;28;20334;-71
2024/01/18 04:53:25;;;;;;;13.43;10.17;;;-0.70;99.90;;;;;;5049661;28;20636;-71
2024/01/18 04:55:53;;;;;;;14.43;10.27;;;-0.70;99.90;;;;;;5049569;28;20310;-71
2024/01/18 04:58:21;;;;;;;14.80;10.60;;;-0.70;99.90;;;;;;5049836;28;20241;-71
2024/01/18 05:00:49;;;;;;;12.73;9.80;;;-0.60;99.90;;;;;;5049133;28;20671;-71
2024/01/18 05:03:16;;;;;;;13.73;9.53;;;-0.60;99.90;;;;;;5049314;28;20215;-71
2024/01/18 05:05:43;;;;;;;15.93;9.77;;;-0.60;99.90;;;;;;5049698;28;20628;-71
2024/01/18 05:08:10;;;;;;;11.63;9.60;;;-0.50;99.90;;;;;;5048914;28;20294;-71
2024/01/18 05:10:37;;;;;;;10.57;9.47;;;-0.50;99.90;;;;;;5030868;28;20304;-71
2024/01/18 05:13:04;;;;;;;18.70;13.80;;;-0.60;99.90;;;;;;5029066;28;20204;-71
2024/01/18 05:15:31;;;;;;;27.53;17.90;;;-0.60;99.90;;;;;;5028997;28;20252;-71
2024/01/18 05:17:59;;;;;;;24.67;16.40;;;-0.60;99.90;;;;;;5037799;28;20208;-71
2024/01/18 05:20:26;;;;;;;27.30;16.73;;;-0.70;99.90;;;;;;5049062;28;20782;-71
2024/01/18 05:22:53;;;;;;;18.20;12.83;;;-0.60;99.90;;;;;;5048911;28;20226;-71
2024/01/18 05:25:21;;;;;;;45.33;23.80;;;-0.60;99.90;;;;;;5048610;28;20853;-71
2024/01/18 05:27:49;;;;;;;47.30;23.50;;;-0.70;99.90;;;;;;5048626;28;20734;-71
2024/01/18 05:30:15;;;;;;;38.33;21.73;;;-0.70;99.90;;;;;;5049094;28;20218;-71
2024/01/18 05:32:42;;;;;;;22.90;14.33;;;-0.60;99.90;;;;;;5048915;28;20326;-71
2024/01/18 05:35:11;;;;;;;18.13;12.13;;;-0.60;99.90;;;;;;5048597;28;20508;-71
2024/01/18 05:37:38;;;;;;;13.33;11.07;;;-0.60;99.90;;;;;;5048762;28;20208;-71
2024/01/18 05:40:07;;;;;;;13.43;9.97;;;-0.60;99.90;;;;;;5048394;28;20235;-71
2024/01/18 05:42:35;;;;;;;14.93;10.20;;;-0.60;99.90;;;;;;5048552;28;20673;-71
2024/01/18 05:45:02;;;;;;;14.60;10.80;;;-0.60;99.90;;;;;;5048290;28;20267;-71
2024/01/18 05:47:29;;;;;;;13.30;10.80;;;-0.60;99.90;;;;;;5048598;28;20291;-71
2024/01/18 05:49:55;;;;;;;13.27;10.00;;;-0.60;99.90;;;;;;5048030;28;20275;-71
2024/01/18 05:52:24;;;;;;;15.03;10.20;;;-0.60;99.90;;;;;;5047864;28;20291;-71
2024/01/18 05:54:52;;;;;;;13.73;10.03;;;-0.60;99.90;;;;;;5047864;28;20228;-71
2024/01/18 05:57:18;;;;;;;11.00;9.53;;;-0.70;99.90;;;;;;5046896;28;20214;-71
2024/01/18 05:59:45;;;;;;;12.03;10.63;;;-0.70;99.90;;;;;;5045679;28;20624;-71
2024/01/18 06:02:12;;;;;;;13.57;10.30;;;-0.80;99.90;;;;;;5048287;28;20283;-71
2024/01/18 06:04:39;;;;;;;14.70;10.77;;;-0.80;99.90;;;;;;5047946;28;20330;-71
2024/01/18 06:07:06;;;;;;;13.70;10.63;;;-0.80;99.90;;;;;;5047768;28;20205;-71
2024/01/18 06:09:34;;;;;;;15.60;11.20;;;-0.70;99.90;;;;;;5047825;28;20325;-71
2024/01/18 06:12:01;;;;;;;12.57;10.70;;;-0.80;99.90;;;;;;5048084;28;20227;-71
2024/01/18 06:14:28;;;;;;;14.43;10.70;;;-0.80;99.90;;;;;;5047911;28;20296;-71
2024/01/18 06:16:55;;;;;;;13.47;10.43;;;-0.90;99.90;;;;;;5047520;28;20235;-71
2024/01/18 06:19:23;;;;;;;11.20;9.97;;;-0.90;99.90;;;;;;5047971;28;20258;-71
2024/01/18 06:21:50;;;;;;;13.47;10.97;;;-0.80;99.90;;;;;;5047912;28;20208;-71
2024/01/18 06:24:17;;;;;;;12.10;10.17;;;-0.80;99.90;;;;;;5047992;28;20203;-71
2024/01/18 06:26:45;;;;;;;13.57;10.57;;;-0.80;99.90;;;;;;5047516;28;20993;-71
2024/01/18 06:29:12;;;;;;;13.33;10.63;;;-0.60;99.90;;;;;;5047508;28;20780;-71
2024/01/18 06:31:39;;;;;;;16.33;11.27;;;-0.50;99.90;;;;;;5047609;28;20216;-71
2024/01/18 06:34:06;;;;;;;13.37;10.43;;;-0.50;99.90;;;;;;5047528;28;20287;-71
2024/01/18 06:36:32;;;;;;;14.20;11.30;;;-0.40;99.90;;;;;;5047280;28;20212;-71
2024/01/18 06:38:59;;;;;;;16.47;10.80;;;-0.50;99.90;;;;;;5047733;28;20291;-71
2024/01/18 06:41:26;;;;;;;14.67;10.73;;;-0.60;99.90;;;;;;5047579;28;20432;-71
2024/01/18 06:43:55;;;;;;;14.50;10.53;;;-0.60;99.90;;;;;;5047291;28;20287;-71
2024/01/18 06:46:22;;;;;;;13.57;10.17;;;-0.70;99.90;;;;;;5047413;28;20250;-71
2024/01/18 06:48:52;;;;;;;13.73;10.50;;;-0.60;99.90;;;;;;5047364;28;20227;-71
2024/01/18 06:51:20;;;;;;;13.63;9.90;;;-0.60;99.90;;;;;;5047345;28;20193;-71
2024/01/18 06:53:47;;;;;;;12.80;10.33;;;-0.60;99.90;;;;;;5047348;28;20235;-71
2024/01/18 06:56:14;;;;;;;12.30;10.00;;;-0.60;99.90;;;;;;5047212;28;20473;-71
2024/01/18 06:58:42;;;;;;;14.93;11.00;;;-0.60;99.90;;;;;;5046791;28;20757;-71
2024/01/18 07:01:10;;;;;;;14.00;10.70;;;-0.70;99.90;;;;;;5046615;28;20664;-71
2024/01/18 07:03:37;;;;;;;15.60;10.97;;;-0.60;99.90;;;;;;5046877;28;20330;-71
2024/01/18 07:06:05;;;;;;;13.17;10.77;;;-0.70;99.90;;;;;;5046437;28;20368;-71
2024/01/18 07:08:32;;;;;;;13.20;10.60;;;-0.70;99.90;;;;;;5045593;28;20322;-71
2024/01/18 07:10:59;;;;;;;12.77;10.30;;;-0.80;99.90;;;;;;5046231;28;20277;-71
2024/01/18 07:13:28;;;;;;;13.53;10.00;;;-0.80;99.90;;;;;;5047236;28;20288;-71
2024/01/18 07:15:55;;;;;;;13.43;9.90;;;-0.80;99.90;;;;;;5046637;28;20203;-71
2024/01/18 07:18:23;;;;;;;12.73;10.37;;;-0.80;99.90;;;;;;5046968;28;20526;-71
2024/01/18 07:20:51;;;;;;;14.67;9.97;;;-0.80;99.90;;;;;;5046846;28;20200;-71
2024/01/18 07:23:18;;;;;;;12.83;9.63;;;-0.80;99.90;;;;;;5046692;28;20204;-71
2024/01/18 07:25:45;;;;;;;13.57;9.93;;;-0.80;99.90;;;;;;5046700;28;20299;-71
2024/01/18 07:28:11;;;;;;;16.47;11.77;;;-0.80;99.90;;;;;;5046702;28;20208;-71
2024/01/18 07:30:39;;;;;;;15.07;12.07;;;-0.90;99.90;;;;;;5045886;28;20594;-71
2024/01/18 07:33:06;;;;;;;16.33;12.23;;;-0.90;99.90;;;;;;5046233;28;20212;-71
2024/01/18 07:35:34;;;;;;;17.27;12.50;;;-0.90;99.90;;;;;;5046292;28;20250;-71
2024/01/18 07:38:01;;;;;;;21.10;14.13;;;-0.90;99.90;;;;;;5045361;28;20214;-71
2024/01/18 07:40:28;;;;;;;18.33;14.30;;;-0.80;99.90;;;;;;5045844;28;20273;-71
2024/01/18 07:42:55;;;;;;;16.40;12.53;;;-0.80;99.90;;;;;;5046409;28;20299;-71
2024/01/18 07:45:22;;;;;;;14.77;10.90;;;-0.80;99.90;;;;;;5045801;28;20211;-71
2024/01/18 07:47:49;;;;;;;12.27;10.30;;;-0.80;99.90;;;;;;5046034;28;20646;-71
2024/01/18 07:50:16;;;;;;;12.73;10.70;;;-0.70;99.90;;;;;;5046250;28;20232;-71
2024/01/18 07:52:45;;;;;;;14.57;11.13;;;-0.70;99.90;;;;;;5046026;28;20661;-71
2024/01/18 07:55:12;;;;;;;12.87;10.17;;;-0.70;99.90;;;;;;5045818;28;20260;-71
2024/01/18 07:57:38;;;;;;;14.63;10.80;;;-0.60;99.90;;;;;;5046482;28;20204;-71
2024/01/18 08:00:08;;;;;;;13.67;11.13;;;-0.60;99.90;;;;;;5045975;28;20290;-71
2024/01/18 08:02:35;;;;;;;13.50;10.53;;;-0.60;99.90;;;;;;5045867;28;20728;-71
2024/01/18 08:05:02;;;;;;;14.37;11.27;;;-0.70;99.90;;;;;;5045449;28;20271;-71
2024/01/18 08:07:29;;;;;;;14.90;11.90;;;-0.70;99.90;;;;;;5041606;28;20220;-72
2024/01/18 08:09:57;;;;;;;17.40;11.60;;;-0.60;99.90;;;;;;5033213;28;20236;-71
2024/01/18 08:12:24;;;;;;;13.90;11.00;;;-0.80;99.90;;;;;;5026121;28;20209;-71
2024/01/18 08:14:51;;;;;;;13.40;11.13;;;-0.70;99.90;;;;;;5026179;28;20308;-71
2024/01/18 08:17:18;;;;;;;16.13;11.37;;;-0.70;99.90;;;;;;5025939;28;20236;-71
2024/01/18 08:19:45;;;;;;;15.27;11.13;;;-0.70;99.90;;;;;;5026911;28;20244;-71
2024/01/18 08:22:12;;;;;;;15.07;11.43;;;-0.60;99.90;;;;;;5048266;28;20622;-71
2024/01/18 08:24:39;;;;;;;14.37;11.33;;;-0.50;99.90;;;;;;5049332;28;20219;-71
2024/01/18 08:27:07;;;;;;;16.73;11.70;;;-0.50;99.90;;;;;;5049618;28;20216;-71
2024/01/18 08:29:37;;;;;;;15.80;11.97;;;-0.60;99.90;;;;;;5049343;28;20234;-71
2024/01/18 08:32:05;;;;;;;16.73;11.53;;;-0.60;99.90;;;;;;5049452;28;20575;-71
2024/01/18 08:34:32;;;;;;;14.83;10.97;;;-0.70;99.90;;;;;;5049586;28;20287;-71
2024/01/18 08:36:59;;;;;;;16.23;11.90;;;-0.70;99.90;;;;;;5049159;28;20291;-71
2024/01/18 08:39:26;;;;;;;14.57;12.20;;;-0.60;99.90;;;;;;5049488;28;20249;-71
2024/01/18 08:41:56;;;;;;;14.77;11.43;;;-0.70;99.90;;;;;;5049587;28;20214;-71
2024/01/18 08:44:24;;;;;;;14.53;11.73;;;-0.80;99.90;;;;;;5049394;28;20223;-71
2024/01/18 08:46:51;;;;;;;20.87;12.47;;;-0.80;99.90;;;;;;5049152;28;20310;-72
2024/01/18 08:49:18;;;;;;;17.87;12.00;;;-0.70;99.90;;;;;;5049654;28;20323;-71
2024/01/18 08:51:45;;;;;;;16.10;12.33;;;-0.60;99.90;;;;;;5049471;28;20204;-71
2024/01/18 08:54:12;;;;;;;17.60;12.43;;;-0.60;99.90;;;;;;5049386;28;20367;-71
2024/01/18 08:56:39;;;;;;;16.17;11.90;;;-0.60;99.90;;;;;;5049447;28;20251;-71
2024/01/18 08:59:06;;;;;;;17.93;12.80;;;-0.60;99.90;;;;;;5049337;28;20307;-71
2024/01/18 09:01:34;;;;;;;17.00;12.77;;;-0.60;99.90;;;;;;5049246;28;20210;-71
2024/01/18 09:04:01;;;;;;;14.23;11.87;;;-0.70;99.90;;;;;;5048575;28;20607;-71
2024/01/18 09:06:29;;;;;;;16.43;11.33;;;-0.70;99.90;;;;;;5048908;28;20208;-71
2024/01/18 09:08:56;;;;;;;17.67;12.70;;;-0.70;99.90;;;;;;5044826;28;20303;-71
2024/01/18 09:11:23;;;;;;;17.73;12.77;;;-0.70;99.90;;;;;;5029481;28;20205;-71
2024/01/18 09:13:50;;;;;;;15.67;12.70;;;-0.60;99.90;;;;;;5029365;28;20266;-71
2024/01/18 09:16:17;;;;;;;16.57;12.00;;;-0.60;99.90;;;;;;5030152;28;20212;-71
2024/01/18 09:18:46;;;;;;;17.13;11.93;;;-0.60;99.90;;;;;;5048866;28;20208;-71
2024/01/18 09:21:12;;;;;;;15.40;11.80;;;-0.60;99.90;;;;;;5048812;28;20251;-71
2024/01/18 09:23:39;;;;;;;17.23;11.90;;;-0.70;99.90;;;;;;5048752;28;20649;-71
2024/01/18 09:26:06;;;;;;;15.80;12.33;;;-0.70;99.90;;;;;;5048515;28;20303;-71
2024/01/18 09:28:33;;;;;;;15.80;11.67;;;-0.70;99.90;;;;;;5048732;28;20248;-71
2024/01/18 09:31:00;;;;;;;17.30;12.60;;;-0.70;99.90;;;;;;5047114;28;20231;-71
2024/01/18 09:33:27;;;;;;;18.23;12.93;;;-0.70;99.90;;;;;;5048417;28;20307;-71
2024/01/18 09:35:55;;;;;;;18.77;12.73;;;-0.70;99.90;;;;;;5048300;28;20303;-71
2024/01/18 09:38:22;;;;;;;20.30;12.30;;;-0.70;99.90;;;;;;5048177;28;20215;-71
2024/01/18 09:40:49;;;;;;;15.23;11.80;;;-0.60;99.90;;;;;;5048340;28;20216;-71
2024/01/18 09:43:17;;;;;;;17.70;12.03;;;-0.60;99.90;;;;;;5049145;28;20298;-71
2024/01/18 09:45:48;;;;;;;16.67;12.43;;;-0.60;99.90;;;;;;5048321;28;20212;-71
2024/01/18 09:48:16;;;;;;;18.03;13.53;;;-0.60;99.90;;;;;;5048229;28;20188;-71
2024/01/18 09:50:44;;;;;;;15.70;12.00;;;-0.60;99.90;;;;;;5048120;28;20243;-72
2024/01/18 09:53:13;;;;;;;21.47;13.00;;;-0.60;99.90;;;;;;5047980;28;20899;-71
2024/01/18 09:55:40;;;;;;;18.00;12.90;;;-0.60;99.90;;;;;;5048154;28;20204;-71
2024/01/18 09:58:13;;;;;;;20.07;12.60;;;-0.50;99.90;;;;;;5047912;28;20243;-71
2024/01/18 10:00:44;;;;;;;21.03;13.20;;;-0.40;99.90;;;;;;5044149;28;20303;-71
2024/01/18 10:03:12;;;;;;;17.37;12.40;;;-0.40;99.90;;;;;;5048008;28;20647;-71
2024/01/18 10:05:38;;;;;;;16.00;12.30;;;-0.30;99.90;;;;;;5048267;28;20293;-71
2024/01/18 10:08:06;;;;;;;16.10;12.07;;;-0.30;99.90;;;;;;5048027;28;20297;-71
2024/01/18 10:10:34;;;;;;;18.90;12.83;;;-0.30;99.90;;;;;;5030383;28;20315;-71
2024/01/18 10:13:02;;;;;;;15.40;12.70;;;-0.30;99.90;;;;;;5032828;28;20216;-71
2024/01/18 10:15:32;;;;;;;17.70;13.23;;;-0.20;99.90;;;;;;5048398;28;20215;-71
2024/01/18 10:17:59;;;;;;;16.97;12.67;;;-0.10;99.90;;;;;;5047445;28;20208;-71
2024/01/18 10:20:27;;;;;;;17.30;12.70;;;-0.10;99.90;;;;;;5047916;28;20299;-71
2024/01/18 10:22:55;;;;;;;21.23;13.50;;;0.00;99.90;;;;;;5047908;28;20607;-71
2024/01/18 10:25:24;;;;;;;15.63;12.47;;;-0.10;99.90;;;;;;5048315;28;20205;-72
2024/01/18 10:27:54;;;;;;;19.73;12.73;;;-0.20;99.90;;;;;;5047838;28;20205;-71
2024/01/18 10:30:22;;;;;;;18.33;13.10;;;-0.10;99.90;;;;;;5047865;28;20227;-71
2024/01/18 10:32:48;;;;;;;18.43;13.20;;;-0.10;99.90;;;;;;5047809;28;20218;-71
2024/01/18 10:35:21;;;;;;;19.27;12.67;;;0.00;99.90;;;;;;5048130;28;20207;-71
2024/01/18 10:37:48;;;;;;;16.63;12.33;;;0.00;99.90;;;;;;5047848;28;20291;-71
2024/01/18 10:40:20;;;;;;;18.27;12.57;;;0.10;99.90;;;;;;5047533;28;20215;-71
2024/01/18 10:42:47;;;;;;;16.63;12.40;;;0.10;99.90;;;;;;5047682;28;20200;-71
2024/01/18 10:45:17;;;;;;;15.33;11.70;;;0.00;99.90;;;;;;5047504;28;20204;-71
2024/01/18 10:47:45;;;;;;;15.53;12.07;;;0.00;99.90;;;;;;5047606;28;20254;-71
2024/01/18 10:50:12;;;;;;;16.67;12.20;;;0.10;99.90;;;;;;5047439;28;20322;-71
2024/01/18 10:52:40;;;;;;;18.33;13.77;;;0.00;99.90;;;;;;5047422;28;20218;-71
2024/01/18 10:55:09;;;;;;;15.53;11.70;;;0.10;99.90;;;;;;5047006;28;20338;-71
2024/01/18 10:57:36;;;;;;;16.23;12.50;;;-0.10;99.90;;;;;;5047575;28;20200;-71
2024/01/18 11:00:06;;;;;;;16.53;12.80;;;-0.10;99.90;;;;;;5047326;28;20292;-71
2024/01/18 11:02:39;;;;;;;17.50;12.13;;;0.00;99.90;;;;;;5047796;28;20368;-71
2024/01/18 11:05:09;;;;;;;17.70;11.93;;;0.00;99.90;;;;;;5047193;28;20265;-71
2024/01/18 11:07:37;;;;;;;17.33;12.10;;;-0.10;99.90;;;;;;5047107;28;20214;-71
2024/01/18 11:10:08;;;;;;;17.37;13.13;;;-0.10;99.90;;;;;;5045024;28;20236;-71
2024/01/18 11:12:35;;;;;;;15.90;12.80;;;-0.10;99.90;;;;;;5047564;28;20289;-71
2024/01/18 11:15:03;;;;;;;19.40;13.73;;;-0.10;99.90;;;;;;5047232;28;20207;-71
2024/01/18 11:17:31;;;;;;;15.90;12.57;;;-0.10;99.90;;;;;;5047343;28;20391;-71
2024/01/18 11:20:04;;;;;;;17.60;13.20;;;-0.10;99.90;;;;;;5046677;28;20952;-71
2024/01/18 11:22:31;;;;;;;18.37;13.10;;;-0.10;99.90;;;;;;5047032;28;20197;-71
2024/01/18 11:25:04;;;;;;;18.50;12.57;;;-0.10;99.90;;;;;;5046912;28;20207;-71
2024/01/18 11:27:37;;;;;;;17.83;13.80;;;-0.10;99.90;;;;;;5047173;28;20296;-71
2024/01/18 11:30:05;;;;;;;21.67;13.50;;;-0.10;99.90;;;;;;5046894;28;20228;-71
2024/01/18 11:32:33;;;;;;;17.33;12.33;;;-0.10;99.90;;;;;;5046948;28;20298;-71
2024/01/18 11:35:13;;;;;;;16.57;13.30;;;-0.10;99.90;;;;;;5046958;28;20204;-71
2024/01/18 11:37:40;;;;;;;16.93;12.90;;;-0.10;99.90;;;;;;5047342;28;20561;-71
2024/01/18 11:40:09;;;;;;;18.17;13.23;;;-0.10;99.90;;;;;;5047009;28;20239;-71
2024/01/18 11:42:40;;;;;;;19.73;13.53;;;0.00;99.90;;;;;;5047028;28;20273;-71
2024/01/18 11:45:16;;;;;;;17.93;13.93;;;0.00;99.90;;;;;;5046739;28;20201;-71
2024/01/18 11:47:43;;;;;;;20.97;14.23;;;0.00;99.90;;;;;;5046837;28;20279;-71
2024/01/18 11:50:12;;;;;;;20.07;13.00;;;-0.10;99.90;;;;;;5046797;28;20818;-71
2024/01/18 11:52:41;;;;;;;20.60;14.57;;;-0.10;99.90;;;;;;5042137;28;20240;-71
2024/01/18 11:55:10;;;;;;;20.03;14.07;;;0.00;99.90;;;;;;5049205;28;20232;-71
2024/01/18 11:57:37;;;;;;;15.83;13.10;;;0.00;99.90;;;;;;5051046;28;20212;-71
2024/01/18 12:00:05;;;;;;;15.83;12.33;;;0.10;99.90;;;;;;5050525;28;20274;-71
2024/01/18 12:02:32;;;;;;;18.17;13.07;;;0.10;99.90;;;;;;5050626;28;20204;-71
2024/01/18 12:05:00;;;;;;;16.70;13.13;;;0.30;99.90;;;;;;5050422;28;20314;-71
2024/01/18 12:07:29;;;;;;;18.37;14.13;;;0.40;99.90;;;;;;5050270;28;20241;-71
2024/01/18 12:09:57;;;;;;;15.90;12.80;;;0.60;99.90;;;;;;5050139;28;20736;-71
2024/01/18 12:12:24;;;;;;;16.50;12.97;;;0.70;99.90;;;;;;5050713;28;20208;-71
2024/01/18 12:14:51;;;;;;;16.53;12.90;;;0.90;99.90;;;;;;5050135;28;20754;-71
2024/01/18 12:17:18;;;;;;;27.80;14.27;;;0.90;99.90;;;;;;5050297;28;20200;-71
2024/01/18 12:19:46;;;;;;;20.87;12.13;;;1.00;99.90;;;;;;5050651;28;20231;-71
2024/01/18 12:22:14;;;;;;;17.07;13.47;;;1.10;99.90;;;;;;5050004;28;20235;-71
2024/01/18 12:24:43;;;;;;;16.67;13.30;;;1.30;99.90;;;;;;5050330;28;20682;-71
2024/01/18 12:27:10;;;;;;;17.23;11.83;;;1.40;99.90;;;;;;5049857;28;20646;-71
2024/01/18 12:29:40;;;;;;;14.47;12.90;;;1.50;99.90;;;;;;5049865;28;20298;-71
2024/01/18 12:32:08;;;;;;;14.13;12.37;;;1.50;99.90;;;;;;5049578;28;20319;-71
2024/01/18 12:34:36;;;;;;;17.13;12.57;;;1.60;99.90;;;;;;5050167;28;20223;-71